Interessegrupper
Antall som skal vises: 
Nr. Nettlenke Treff
1   Link   BirdDog
1876
2   Link   Cessna Owner Organization
2943
3   Link   Cessna Pilots Association
1643
4   Link   Dakota Norway
3080
5   Link   DC-3 Vennerne
1599
6   Link   Europa Club
1809
7   Link   Kjevik Siden
1821
8   Link   Lancair Pilots
1966
9   Link   Piper Owner Society
2170
10   Link   Scandinavian Historic Flight
1758
11   Link   Seaplane Pilots Association
1618
12   Link   StarFighter
1932
13   Link   Storch
1798
14   Link   SuperCub
2880
15   Link   Svensk Flyghistorisk Forening
1653
16   Link   The Flying Clippers
1636
17   Link   The Old Flying Machine Company
1552
18   Link   Troms luftsportskrets
1774
19   Link   Vintage Aircraft Association
2761
20   Link   Warbirds of Norway
1978
«StartForrige12NesteSiste»
Side 1 av 2
 
METAR
2018/06/18 17:20 ENCN 181720Z 23011KT 9999 VCSH BKN023 15/10 Q1009
TAF
2018/06/18 15:38 TAF ENCN 181400Z 1815/1821 21010KT 9999 BKN014 TEMPO 1815/1816 BKN008 BECMG 1816/1818 SCT020
LN-KFK
Operativ VFR-natt
VFR dag
03:04 - 23:53
Brannvakt
Inaktiv
Banner
Banner
Banner
Banner
Banner